Time;durP1;ratioP1;P1;durP2;ratioP2;P2;SDS_P1;SDS_P2;PMS_P1;PMS_P2;Temp;Humidity;BMP_temperature;BMP_pressure;BME280_temperature;BME280_humidity;BME280_pressure;Samples;Min_cycle;Max_cycle;Signal;HPM_P1;HPM_P2
2021/06/25 00:02:21;;;;;;;1.20;1.10;;;17.90;98.00;;;;;;5051804;28;20521;-70
2021/06/25 00:04:48;;;;;;;1.50;1.20;;;17.80;98.00;;;;;;5049305;28;20512;-70
2021/06/25 00:07:15;;;;;;;1.23;1.10;;;17.70;98.00;;;;;;5051674;28;20454;-70
2021/06/25 00:09:42;;;;;;;1.30;1.10;;;17.60;98.00;;;;;;5049297;28;20519;-70
2021/06/25 00:12:10;;;;;;;1.30;1.13;;;17.70;98.00;;;;;;5051890;28;20796;-70
2021/06/25 00:14:38;;;;;;;1.20;1.00;;;17.80;98.00;;;;;;5049092;28;20462;-70
2021/06/25 00:17:05;;;;;;;1.40;1.30;;;17.90;98.00;;;;;;5051705;28;20924;-70
2021/06/25 00:19:34;;;;;;;1.20;1.10;;;18.00;98.00;;;;;;5049052;28;20519;-70
2021/06/25 00:22:01;;;;;;;1.50;1.17;;;18.00;98.00;;;;;;5051505;28;20486;-70
2021/06/25 00:24:28;;;;;;;1.30;1.10;;;18.10;98.00;;;;;;5048877;28;20454;-70
2021/06/25 00:26:55;;;;;;;1.30;1.20;;;18.00;98.00;;;;;;5051530;28;20462;-70
2021/06/25 00:29:24;;;;;;;1.67;1.40;;;18.00;98.00;;;;;;5049483;28;21016;-70
2021/06/25 00:31:51;;;;;;;1.20;1.00;;;18.00;98.00;;;;;;5051364;28;20511;-70
2021/06/25 00:34:18;;;;;;;1.20;1.00;;;18.00;98.00;;;;;;5051242;28;20504;-70
2021/06/25 00:36:47;;;;;;;1.40;1.10;;;17.90;98.00;;;;;;5048901;28;20458;-70
2021/06/25 00:39:14;;;;;;;1.23;1.07;;;17.70;98.00;;;;;;5055530;28;21149;-70
2021/06/25 00:41:41;;;;;;;1.60;1.30;;;17.70;98.00;;;;;;5053035;28;20486;-70
2021/06/25 00:44:16;;;;;;;1.20;1.10;;;17.60;98.00;;;;;;5055476;28;20489;-70
2021/06/25 00:46:43;;;;;;;1.20;1.10;;;17.70;98.00;;;;;;5052822;28;20548;-70
2021/06/25 00:49:10;;;;;;;1.47;1.10;;;17.50;98.00;;;;;;5055605;28;21130;-70
2021/06/25 00:51:37;;;;;;;1.20;1.10;;;17.50;98.00;;;;;;5051631;28;20461;-70
2021/06/25 00:54:08;;;;;;;1.20;1.10;;;17.50;98.00;;;;;;5054062;28;20516;-70
2021/06/25 00:56:36;;;;;;;1.63;1.10;;;17.50;98.00;;;;;;5052796;28;20486;-69
2021/06/25 00:59:03;;;;;;;1.20;1.10;;;17.60;98.00;;;;;;5055421;28;20858;-70
2021/06/25 01:01:31;;;;;;;1.47;1.13;;;17.60;98.00;;;;;;5052694;28;20453;-71
2021/06/25 01:03:58;;;;;;;1.20;1.00;;;17.60;98.00;;;;;;5054848;28;20465;-70
2021/06/25 01:06:29;;;;;;;1.30;1.00;;;17.50;98.00;;;;;;5052083;28;20543;-71
2021/06/25 01:08:56;;;;;;;1.20;1.10;;;17.50;98.00;;;;;;5054875;28;20461;-72
2021/06/25 01:11:30;;;;;;;1.20;1.00;;;17.50;98.00;;;;;;5052475;28;20464;-70
2021/06/25 01:13:59;;;;;;;1.20;1.00;;;17.60;98.00;;;;;;5054902;28;20936;-70
2021/06/25 01:16:26;;;;;;;1.20;1.10;;;17.60;98.00;;;;;;5052062;28;20458;-70
2021/06/25 01:18:53;;;;;;;1.20;1.00;;;17.60;98.00;;;;;;5053759;28;20461;-70
2021/06/25 01:21:25;;;;;;;1.20;1.10;;;17.70;98.00;;;;;;5052286;28;20883;-70
2021/06/25 01:23:52;;;;;;;1.20;1.20;;;17.70;98.00;;;;;;5054911;28;20523;-70
2021/06/25 01:26:20;;;;;;;1.20;1.00;;;17.70;98.00;;;;;;5050814;28;20500;-70
2021/06/25 01:28:48;;;;;;;1.60;1.30;;;17.80;98.00;;;;;;5054590;28;20501;-70
2021/06/25 01:31:15;;;;;;;2.23;1.40;;;17.70;98.00;;;;;;5052056;28;21039;-70
2021/06/25 01:33:42;;;;;;;1.20;1.00;;;17.60;98.00;;;;;;5054826;28;20539;-70
2021/06/25 01:36:10;;;;;;;1.20;1.00;;;17.60;98.00;;;;;;5051930;28;20500;-70
2021/06/25 01:38:43;;;;;;;1.20;1.03;;;17.60;98.00;;;;;;5054708;28;20806;-70
2021/06/25 01:41:10;;;;;;;1.30;1.00;;;17.60;98.00;;;;;;5051330;28;20540;-70
2021/06/25 01:43:40;;;;;;;1.33;1.20;;;17.60;98.00;;;;;;5053395;28;20495;-70
2021/06/25 01:46:08;;;;;;;1.20;1.00;;;17.70;98.00;;;;;;5051617;28;20457;-70
2021/06/25 01:48:35;;;;;;;1.20;1.10;;;17.60;98.00;;;;;;5053307;28;20457;-70
2021/06/25 01:51:03;;;;;;;1.20;1.00;;;17.60;98.00;;;;;;5051136;28;20461;-70
2021/06/25 01:53:30;;;;;;;1.30;1.17;;;17.60;98.00;;;;;;5054005;28;20504;-71
2021/06/25 01:56:01;;;;;;;1.20;1.10;;;17.50;98.00;;;;;;5051460;28;20492;-71
2021/06/25 01:58:30;;;;;;;1.20;1.00;;;17.50;98.00;;;;;;5054002;28;20450;-70
2021/06/25 02:01:07;;;;;;;1.20;1.00;;;17.70;98.00;;;;;;5050879;28;20489;-71
2021/06/25 02:03:34;;;;;;;1.20;1.10;;;17.60;98.00;;;;;;5053762;28;20485;-70
2021/06/25 02:06:01;;;;;;;1.20;1.10;;;17.60;98.00;;;;;;5050861;28;20489;-69
2021/06/25 02:08:28;;;;;;;1.33;1.10;;;17.60;98.00;;;;;;5052458;28;21049;-71
2021/06/25 02:10:56;;;;;;;1.20;1.10;;;17.60;98.00;;;;;;5050096;28;20510;-69
2021/06/25 02:13:24;;;;;;;1.20;1.10;;;17.60;98.00;;;;;;5053238;28;20450;-70
2021/06/25 02:15:52;;;;;;;1.20;1.10;;;17.60;98.00;;;;;;5050215;28;20546;-70
2021/06/25 02:18:19;;;;;;;2.07;1.20;;;17.40;98.00;;;;;;5051837;28;20469;-70
2021/06/25 02:20:49;;;;;;;1.37;1.33;;;17.30;98.00;;;;;;5050142;28;20508;-71
2021/06/25 02:23:17;;;;;;;1.20;1.00;;;17.30;98.00;;;;;;5053284;28;20528;-70
2021/06/25 02:25:44;;;;;;;1.30;1.20;;;17.50;98.00;;;;;;5050020;28;20515;-70
2021/06/25 02:28:12;;;;;;;1.40;1.10;;;17.50;98.00;;;;;;5052357;28;20480;-70
2021/06/25 02:30:40;;;;;;;1.20;1.00;;;17.50;98.00;;;;;;5050481;28;20503;-70
2021/06/25 02:33:07;;;;;;;1.20;1.00;;;17.50;98.00;;;;;;5053404;28;20982;-70
2021/06/25 02:35:49;;;;;;;1.20;1.10;;;17.40;98.00;;;;;;5050074;28;20492;-71
2021/06/25 02:38:16;;;;;;;1.20;1.10;;;17.40;98.00;;;;;;5053236;28;20948;-70
2021/06/25 02:40:44;;;;;;;1.20;1.20;;;17.50;98.00;;;;;;5050340;28;21009;-70
2021/06/25 02:43:11;;;;;;;1.20;1.10;;;17.40;98.00;;;;;;5035406;28;20922;-71
2021/06/25 02:45:44;;;;;;;1.20;1.10;;;17.40;98.00;;;;;;5050017;28;20516;-70
2021/06/25 02:48:11;;;;;;;1.43;1.30;;;17.30;98.00;;;;;;5051901;28;20493;-71
2021/06/25 02:50:38;;;;;;;2.20;1.20;;;17.30;98.00;;;;;;5050105;28;20511;-70
2021/06/25 02:53:05;;;;;;;1.30;1.10;;;17.30;98.00;;;;;;5053012;28;20493;-69
2021/06/25 02:55:34;;;;;;;1.40;1.20;;;17.40;98.00;;;;;;5050034;28;20837;-70
2021/06/25 02:58:01;;;;;;;1.30;1.10;;;17.40;98.00;;;;;;5053233;28;20528;-70
2021/06/25 03:00:28;;;;;;;1.20;1.00;;;17.40;98.00;;;;;;5049934;28;20497;-70
2021/06/25 03:02:56;;;;;;;1.20;1.10;;;17.30;98.00;;;;;;5052900;28;20571;-70
2021/06/25 03:05:23;;;;;;;1.27;1.07;;;17.40;98.00;;;;;;5050244;28;21204;-70
2021/06/25 03:07:50;;;;;;;1.20;1.10;;;17.50;98.00;;;;;;5052848;28;20488;-70
2021/06/25 03:10:33;;;;;;;1.40;1.20;;;17.50;98.00;;;;;;5049637;28;21339;-70
2021/06/25 03:13:01;;;;;;;1.20;1.10;;;17.40;98.00;;;;;;5052647;28;20484;-70
2021/06/25 03:15:28;;;;;;;1.20;1.00;;;17.50;98.00;;;;;;5049257;28;20505;-70
2021/06/25 03:17:56;;;;;;;1.20;1.00;;;17.50;98.00;;;;;;5052504;28;20523;-70
2021/06/25 03:20:23;;;;;;;1.50;1.20;;;17.40;98.00;;;;;;5049060;28;20465;-70
2021/06/25 03:22:51;;;;;;;1.20;1.00;;;17.40;98.00;;;;;;5051780;28;20480;-70
2021/06/25 03:25:18;;;;;;;1.20;1.10;;;17.40;98.00;;;;;;5049078;28;20520;-71
2021/06/25 03:27:45;;;;;;;1.20;1.00;;;17.40;98.00;;;;;;5052182;28;20458;-70
2021/06/25 03:30:14;;;;;;;1.20;1.00;;;17.40;98.00;;;;;;5049360;28;20466;-70
2021/06/25 03:32:42;;;;;;;1.67;1.10;;;17.40;98.00;;;;;;5052512;28;20975;-70
2021/06/25 03:35:11;;;;;;;1.20;1.03;;;17.50;98.00;;;;;;5049347;28;20493;-70
2021/06/25 03:37:39;;;;;;;1.93;1.30;;;17.40;98.00;;;;;;5052245;28;20462;-70
2021/06/25 03:40:08;;;;;;;1.20;1.17;;;17.40;98.00;;;;;;5048764;28;20489;-70
2021/06/25 03:42:35;;;;;;;1.60;1.20;;;17.40;98.00;;;;;;5052196;28;20574;-70
2021/06/25 03:45:03;;;;;;;1.60;1.43;;;17.40;98.00;;;;;;5049610;28;20513;-70
2021/06/25 03:47:30;;;;;;;1.20;1.03;;;17.40;98.00;;;;;;5050854;28;20940;-70
2021/06/25 03:49:57;;;;;;;1.30;1.10;;;17.40;98.00;;;;;;5049438;28;20806;-70
2021/06/25 03:52:26;;;;;;;1.20;1.00;;;17.40;98.00;;;;;;5051904;28;20487;-70
2021/06/25 03:54:53;;;;;;;1.20;1.00;;;17.40;98.00;;;;;;5049568;28;20561;-70
2021/06/25 03:57:21;;;;;;;1.20;1.00;;;17.30;98.00;;;;;;5051765;28;20952;-70
2021/06/25 03:59:48;;;;;;;1.20;1.10;;;17.20;98.00;;;;;;5049225;28;20485;-70
2021/06/25 04:02:15;;;;;;;1.30;1.10;;;17.30;98.00;;;;;;5051611;28;20543;-71
2021/06/25 04:04:43;;;;;;;1.20;1.10;;;17.30;98.00;;;;;;5049961;28;20465;-72
2021/06/25 04:07:10;;;;;;;1.20;1.10;;;17.30;98.00;;;;;;5051842;28;20505;-70
2021/06/25 04:09:38;;;;;;;1.20;1.00;;;17.20;98.00;;;;;;5051636;28;20449;-70
2021/06/25 04:12:06;;;;;;;1.80;1.27;;;17.30;98.00;;;;;;5048353;28;20457;-70
2021/06/25 04:14:33;;;;;;;1.23;1.17;;;17.30;98.00;;;;;;5051433;28;20461;-71
2021/06/25 04:17:03;;;;;;;1.20;1.10;;;17.20;98.00;;;;;;5048841;28;20538;-70
2021/06/25 04:19:30;;;;;;;1.30;1.30;;;17.10;98.00;;;;;;5051665;28;20799;-70
2021/06/25 04:21:58;;;;;;;1.20;1.10;;;17.20;98.00;;;;;;5048976;28;21046;-70
2021/06/25 04:24:26;;;;;;;1.30;1.20;;;17.20;98.00;;;;;;5051123;28;20888;-70
2021/06/25 04:26:54;;;;;;;1.40;1.40;;;17.20;98.00;;;;;;5048754;28;20798;-70
2021/06/25 04:29:21;;;;;;;1.20;1.10;;;17.20;98.00;;;;;;5033491;28;20469;-70
2021/06/25 04:31:52;;;;;;;1.20;1.00;;;17.20;98.00;;;;;;5049075;28;20474;-70
2021/06/25 04:34:19;;;;;;;1.20;1.07;;;17.30;98.00;;;;;;5051309;28;20458;-70
2021/06/25 04:36:47;;;;;;;1.40;1.10;;;17.40;98.00;;;;;;5048655;28;20944;-71
2021/06/25 04:39:14;;;;;;;1.40;1.07;;;17.40;98.00;;;;;;5051674;28;20467;-70
2021/06/25 04:41:42;;;;;;;1.20;1.00;;;17.40;98.00;;;;;;5048888;28;20546;-70
2021/06/25 04:44:12;;;;;;;1.20;1.00;;;17.30;98.00;;;;;;5051378;28;20485;-70
2021/06/25 04:46:39;;;;;;;1.20;1.07;;;17.40;98.00;;;;;;5049060;28;20970;-69
2021/06/25 04:49:06;;;;;;;1.20;1.07;;;17.30;98.00;;;;;;5051455;28;20485;-70
2021/06/25 04:51:33;;;;;;;1.20;1.10;;;17.40;98.00;;;;;;5048741;28;20870;-70
2021/06/25 04:54:00;;;;;;;1.20;1.00;;;17.40;98.00;;;;;;5050081;28;20481;-70
2021/06/25 04:56:28;;;;;;;1.20;1.10;;;17.20;98.00;;;;;;5048846;28;20469;-70
2021/06/25 04:58:55;;;;;;;1.20;1.00;;;17.30;98.00;;;;;;5051406;28;20469;-69
2021/06/25 05:01:23;;;;;;;1.53;1.20;;;17.30;98.00;;;;;;5048708;28;20928;-70
2021/06/25 05:03:50;;;;;;;1.20;1.10;;;17.40;98.00;;;;;;5033570;28;20991;-70
2021/06/25 05:06:17;;;;;;;1.20;1.00;;;17.40;98.00;;;;;;5048553;28;20497;-70
2021/06/25 05:08:44;;;;;;;1.20;1.10;;;17.30;98.00;;;;;;5050115;28;20465;-70
2021/06/25 05:11:13;;;;;;;1.20;1.10;;;17.40;98.00;;;;;;5048485;28;20523;-70
2021/06/25 05:13:40;;;;;;;1.30;1.27;;;17.30;98.00;;;;;;5050008;28;20453;-70
2021/06/25 05:16:08;;;;;;;1.20;1.10;;;17.20;98.00;;;;;;5048370;28;20865;-70
2021/06/25 05:18:36;;;;;;;1.67;1.20;;;17.10;98.00;;;;;;5049827;28;20492;-70
2021/06/25 05:21:04;;;;;;;1.20;1.00;;;17.10;98.00;;;;;;5048266;28;20529;-71
2021/06/25 05:23:31;;;;;;;1.20;1.00;;;17.30;98.00;;;;;;5052160;28;20546;-70
2021/06/25 05:25:58;;;;;;;1.40;1.10;;;17.30;98.00;;;;;;5052316;28;20884;-69
2021/06/25 05:28:25;;;;;;;1.20;0.97;;;17.10;98.00;;;;;;5054896;28;20489;-70
2021/06/25 05:30:52;;;;;;;1.20;1.00;;;17.00;98.00;;;;;;5052232;28;20482;-70
2021/06/25 05:33:19;;;;;;;1.20;1.00;;;17.00;98.00;;;;;;5054906;28;20948;-70
2021/06/25 05:35:48;;;;;;;1.20;1.00;;;17.00;98.00;;;;;;5052052;28;20543;-70
2021/06/25 05:38:17;;;;;;;1.67;1.00;;;17.00;98.00;;;;;;5053898;28;20458;-70
2021/06/25 05:40:44;;;;;;;1.20;1.07;;;17.00;98.00;;;;;;5051976;28;20457;-70
2021/06/25 05:43:11;;;;;;;1.20;1.00;;;17.00;98.00;;;;;;5054456;28;20485;-70
2021/06/25 05:45:39;;;;;;;1.10;0.90;;;17.00;98.00;;;;;;5051702;28;20508;-69
2021/06/25 05:48:08;;;;;;;1.30;1.20;;;17.20;98.00;;;;;;5036783;28;20986;-70
2021/06/25 05:50:35;;;;;;;1.10;1.00;;;17.10;98.00;;;;;;5051661;28;20462;-70
2021/06/25 05:53:04;;;;;;;1.20;1.10;;;17.10;98.00;;;;;;5054707;28;20534;-70
2021/06/25 05:55:31;;;;;;;1.20;1.00;;;17.20;98.00;;;;;;5051652;28;21037;-70
2021/06/25 05:57:58;;;;;;;1.20;1.00;;;17.20;98.00;;;;;;5054400;28;20461;-70
2021/06/25 06:00:25;;;;;;;1.20;1.10;;;17.10;98.00;;;;;;5051651;28;20515;-70
2021/06/25 06:02:52;;;;;;;1.40;1.30;;;17.20;98.00;;;;;;5054008;28;20859;-70
2021/06/25 06:05:19;;;;;;;1.20;1.00;;;17.20;98.00;;;;;;5051325;28;20953;-70
2021/06/25 06:07:46;;;;;;;1.20;1.10;;;17.40;98.00;;;;;;5053975;28;20500;-71
2021/06/25 06:10:16;;;;;;;1.20;1.10;;;17.40;98.00;;;;;;5049978;28;20470;-70
2021/06/25 06:12:44;;;;;;;1.20;1.20;;;17.40;98.00;;;;;;5053653;28;20458;-71
2021/06/25 06:15:11;;;;;;;1.30;1.13;;;17.40;98.00;;;;;;5051114;28;20453;-71
2021/06/25 06:17:39;;;;;;;1.40;1.20;;;17.50;98.00;;;;;;5053581;28;20515;-71
2021/06/25 06:20:08;;;;;;;1.20;1.10;;;17.70;98.00;;;;;;5050723;28;20549;-70
2021/06/25 06:33:36;;;;;;;1.60;1.27;;;17.90;98.00;;;;;;5053839;28;20461;-71
2021/06/25 06:36:05;;;;;;;1.30;1.10;;;18.00;98.00;;;;;;5050491;28;20486;-70
2021/06/25 06:38:32;;;;;;;1.20;1.00;;;17.90;98.00;;;;;;5053692;28;20457;-72
2021/06/25 06:41:00;;;;;;;1.40;1.10;;;17.90;98.00;;;;;;5051173;28;20955;-70
2021/06/25 06:43:27;;;;;;;1.20;1.00;;;17.80;98.00;;;;;;5052119;28;20567;-70
2021/06/25 06:45:54;;;;;;;1.20;1.10;;;17.80;98.00;;;;;;5050819;28;20515;-72
2021/06/25 06:48:21;;;;;;;1.20;1.13;;;17.50;98.00;;;;;;5053246;28;21024;-70
2021/06/25 06:50:49;;;;;;;1.20;1.00;;;17.50;98.00;;;;;;5050493;28;20795;-70
2021/06/25 06:53:16;;;;;;;1.20;1.00;;;17.40;98.00;;;;;;5053091;28;21267;-70
2021/06/25 06:55:44;;;;;;;1.20;1.10;;;17.40;98.00;;;;;;5050286;28;20489;-70
2021/06/25 06:58:12;;;;;;;1.20;1.10;;;17.40;98.00;;;;;;5052984;28;20485;-70
2021/06/25 07:00:40;;;;;;;1.30;1.00;;;17.30;98.00;;;;;;5050180;28;20453;-69
2021/06/25 07:03:07;;;;;;;1.10;1.00;;;17.40;98.00;;;;;;5052524;28;20458;-70
2021/06/25 07:05:34;;;;;;;1.10;1.00;;;17.50;98.00;;;;;;5050225;28;20975;-71
2021/06/25 07:08:01;;;;;;;1.20;1.10;;;17.50;98.00;;;;;;5052390;28;20454;-71
2021/06/25 07:10:28;;;;;;;1.10;1.00;;;17.50;98.00;;;;;;5050123;28;20481;-71
2021/06/25 07:12:56;;;;;;;1.10;1.00;;;17.40;98.00;;;;;;5052617;28;20510;-71
2021/06/25 07:15:24;;;;;;;1.10;1.00;;;17.40;98.00;;;;;;5049940;28;20836;-71
2021/06/25 07:17:51;;;;;;;1.10;1.03;;;17.20;98.00;;;;;;5052503;28;20457;-70
2021/06/25 07:20:18;;;;;;;1.10;1.00;;;17.10;98.00;;;;;;5049880;28;20497;-70
2021/06/25 07:22:45;;;;;;;1.10;1.00;;;17.10;98.00;;;;;;5052413;28;20489;-72
2021/06/25 07:25:13;;;;;;;1.10;1.00;;;17.10;98.00;;;;;;5049976;28;20552;-70
2021/06/25 07:27:42;;;;;;;1.20;1.07;;;17.20;98.00;;;;;;5050937;28;20949;-70
2021/06/25 07:30:10;;;;;;;1.10;1.10;;;17.20;98.00;;;;;;5048844;28;20472;-72
2021/06/25 07:32:38;;;;;;;1.10;1.00;;;17.20;98.00;;;;;;5052213;28;20454;-70
2021/06/25 07:35:07;;;;;;;1.20;1.10;;;17.30;98.00;;;;;;5049415;28;20465;-74
2021/06/25 07:37:34;;;;;;;1.10;1.00;;;17.50;98.00;;;;;;5052065;28;20504;-70
2021/06/25 07:40:09;;;;;;;1.13;1.13;;;17.80;98.00;;;;;;5051638;28;20465;-74
2021/06/25 07:42:36;;;;;;;1.20;1.00;;;18.00;98.00;;;;;;5050482;28;20461;-74
2021/06/25 07:45:08;;;;;;;1.13;1.00;;;18.20;98.00;;;;;;5051014;28;20481;-72
2021/06/25 07:47:35;;;;;;;1.20;1.00;;;18.20;98.00;;;;;;5049731;28;20473;-73
2021/06/25 07:50:06;;;;;;;1.30;1.20;;;18.30;98.00;;;;;;5051331;28;20519;-73
2021/06/25 07:52:33;;;;;;;1.20;1.03;;;18.30;98.00;;;;;;5051024;28;20462;-71
2021/06/25 07:55:01;;;;;;;1.60;1.10;;;18.30;98.00;;;;;;5050560;28;20481;-71
2021/06/25 07:57:28;;;;;;;1.20;1.00;;;18.10;98.00;;;;;;5047832;28;20811;-73
2021/06/25 07:59:55;;;;;;;1.20;1.00;;;18.10;98.00;;;;;;5051114;28;20457;-73
2021/06/25 08:02:22;;;;;;;1.20;1.10;;;18.00;98.00;;;;;;5047666;28;20862;-70
2021/06/25 08:04:49;;;;;;;1.20;1.10;;;18.00;98.00;;;;;;5051367;28;20890;-72
2021/06/25 08:07:19;;;;;;;1.20;1.10;;;18.00;98.00;;;;;;5047837;28;20465;-70
2021/06/25 08:09:46;;;;;;;1.43;1.20;;;18.10;98.00;;;;;;5051222;28;20466;-71
2021/06/25 08:12:14;;;;;;;2.00;1.20;;;18.20;98.00;;;;;;5048216;28;20462;-72
2021/06/25 08:14:42;;;;;;;1.20;1.07;;;18.10;98.00;;;;;;5051213;28;20454;-71
2021/06/25 08:17:09;;;;;;;1.20;1.07;;;18.20;98.00;;;;;;5047360;28;20513;-71
2021/06/25 08:19:36;;;;;;;1.30;1.13;;;18.30;98.00;;;;;;5049216;28;20583;-73
2021/06/25 08:22:05;;;;;;;1.30;1.10;;;18.20;98.00;;;;;;5046814;28;20446;-71
2021/06/25 08:24:34;;;;;;;1.50;1.30;;;18.30;98.00;;;;;;5050944;28;20548;-70
2021/06/25 08:27:02;;;;;;;1.20;1.10;;;18.30;98.00;;;;;;5048103;28;20464;-72
2021/06/25 08:29:29;;;;;;;1.90;1.47;;;18.00;98.00;;;;;;5050029;28;20603;-71
2021/06/25 08:31:56;;;;;;;1.30;1.10;;;17.90;98.00;;;;;;5046947;28;20508;-72
2021/06/25 08:34:24;;;;;;;1.10;1.00;;;18.00;98.00;;;;;;5050700;28;20541;-72
2021/06/25 08:36:52;;;;;;;1.20;1.10;;;18.10;98.00;;;;;;5048365;28;20511;-71
2021/06/25 08:39:19;;;;;;;1.27;1.10;;;18.20;98.00;;;;;;5050342;28;20493;-73
2021/06/25 08:41:48;;;;;;;1.30;1.20;;;18.20;98.00;;;;;;5047282;28;20808;-72
2021/06/25 08:44:15;;;;;;;1.47;1.10;;;18.10;98.00;;;;;;5047780;28;20543;-73
2021/06/25 08:46:47;;;;;;;1.83;1.20;;;18.10;98.00;;;;;;5047078;28;20450;-72
2021/06/25 08:49:19;;;;;;;1.43;1.37;;;18.00;98.00;;;;;;5049824;28;20552;-69
2021/06/25 08:51:48;;;;;;;1.30;1.00;;;18.00;98.00;;;;;;5047512;28;20462;-70
2021/06/25 08:54:16;;;;;;;1.10;1.07;;;18.00;98.00;;;;;;5050752;28;20454;-71
2021/06/25 08:56:44;;;;;;;1.10;1.10;;;18.00;98.00;;;;;;5046935;28;20516;-72
2021/06/25 08:59:18;;;;;;;1.40;1.23;;;18.00;98.00;;;;;;5053096;28;20453;-71
2021/06/25 09:01:47;;;;;;;1.30;1.03;;;18.00;98.00;;;;;;5051940;28;20453;-72
2021/06/25 09:04:32;;;;;;;1.50;1.40;;;18.00;98.00;;;;;;5054384;28;20542;-72
2021/06/25 09:07:00;;;;;;;1.10;1.10;;;18.00;98.00;;;;;;5052115;28;20864;-72
2021/06/25 09:09:42;;;;;;;1.43;1.37;;;18.10;98.00;;;;;;5054257;28;20511;-72
2021/06/25 09:12:15;;;;;;;1.13;1.07;;;18.10;98.00;;;;;;5051870;28;20461;-72
2021/06/25 09:15:06;;;;;;;3.13;1.47;;;18.00;98.00;;;;;;5054203;28;20465;-72
2021/06/25 09:17:33;;;;;;;1.30;1.20;;;18.10;98.00;;;;;;5051829;28;20454;-72
2021/06/25 09:20:05;;;;;;;1.20;1.10;;;18.10;98.00;;;;;;5054186;28;20523;-70
2021/06/25 09:22:32;;;;;;;1.40;1.33;;;17.90;98.00;;;;;;5052153;28;20524;-71
2021/06/25 09:25:01;;;;;;;1.50;1.10;;;17.90;98.00;;;;;;5054062;28;20542;-70
2021/06/25 09:27:31;;;;;;;1.10;1.00;;;17.80;98.00;;;;;;5051793;28;20493;-71
2021/06/25 09:30:00;;;;;;;1.10;1.00;;;17.70;98.00;;;;;;5053908;28;20461;-71
2021/06/25 09:32:45;;;;;;;1.10;1.00;;;17.80;98.00;;;;;;5033579;28;20469;-71
2021/06/25 09:35:15;;;;;;;1.20;1.10;;;17.70;98.00;;;;;;5054017;28;21021;-70
2021/06/25 09:37:45;;;;;;;1.10;1.10;;;17.60;98.00;;;;;;5053589;28;20458;-70
2021/06/25 09:40:16;;;;;;;1.10;1.07;;;17.50;98.00;;;;;;5053778;28;20457;-70
2021/06/25 09:42:45;;;;;;;1.10;1.10;;;17.30;98.00;;;;;;5053777;28;20458;-72
2021/06/25 09:45:17;;;;;;;1.20;1.20;;;17.20;98.00;;;;;;5053173;28;20532;-71
2021/06/25 09:47:45;;;;;;;1.10;1.00;;;17.30;98.00;;;;;;5072920;28;20452;-71
2021/06/25 09:50:17;;;;;;;1.10;1.00;;;17.20;98.00;;;;;;5073705;28;20948;-71
2021/06/25 09:52:51;;;;;;;1.10;1.03;;;17.20;98.00;;;;;;5073651;28;20590;-72
2021/06/25 09:55:20;;;;;;;1.10;1.00;;;17.20;98.00;;;;;;5072253;28;20490;-72
2021/06/25 09:58:17;;;;;;;1.10;1.00;;;17.10;98.00;;;;;;5073006;28;20494;-72
2021/06/25 10:03:36;;;;;;;1.10;1.10;;;17.00;98.00;;;;;;5073753;28;20593;-72
2021/06/25 10:06:13;;;;;;;1.10;1.00;;;16.90;98.00;;;;;;5071174;28;20487;-73
2021/06/25 10:08:41;;;;;;;2.60;1.50;;;17.00;98.00;;;;;;5073487;28;21133;-72
2021/06/25 10:11:09;;;;;;;1.20;1.10;;;16.90;98.00;;;;;;5069330;28;20451;-69
2021/06/25 10:13:37;;;;;;;1.47;1.10;;;16.90;98.00;;;;;;5073193;28;20489;-73
2021/06/25 10:16:07;;;;;;;1.10;1.10;;;16.90;98.00;;;;;;5070582;28;21008;-74
2021/06/25 10:18:40;;;;;;;1.40;1.20;;;17.00;98.00;;;;;;5073339;28;20480;-73
2021/06/25 10:21:10;;;;;;;1.20;1.20;;;17.00;98.00;;;;;;5070210;28;20934;-72
2021/06/25 10:23:39;;;;;;;1.37;1.17;;;17.00;98.00;;;;;;5073230;28;20456;-73
2021/06/25 10:26:11;;;;;;;1.20;1.03;;;17.00;98.00;;;;;;5070451;28;20485;-74
2021/06/25 10:28:42;;;;;;;1.57;1.20;;;16.90;98.00;;;;;;5072862;28;20475;-73
2021/06/25 10:31:14;;;;;;;1.40;1.20;;;17.00;98.00;;;;;;5069738;28;20946;-73
2021/06/25 10:33:43;;;;;;;1.27;1.20;;;17.00;98.00;;;;;;5073158;28;20462;-73
2021/06/25 10:36:16;;;;;;;1.47;1.40;;;17.10;98.00;;;;;;5071550;28;20447;-72
2021/06/25 10:38:46;;;;;;;1.20;1.10;;;17.10;98.00;;;;;;5073232;28;20470;-72
2021/06/25 10:41:17;;;;;;;1.50;1.50;;;17.00;98.00;;;;;;5069523;28;20941;-73
2021/06/25 10:43:47;;;;;;;1.20;1.10;;;17.10;98.00;;;;;;5072270;28;20490;-74
2021/06/25 10:46:37;;;;;;;1.10;1.00;;;17.20;98.00;;;;;;5069811;28;20480;-72
2021/06/25 10:49:09;;;;;;;1.10;1.00;;;17.40;98.00;;;;;;5072213;28;20538;-73
2021/06/25 10:51:39;;;;;;;1.10;1.00;;;17.40;98.00;;;;;;5069028;28;20969;-74
2021/06/25 10:54:13;;;;;;;2.30;1.40;;;17.30;98.00;;;;;;5072781;28;20456;-74
2021/06/25 10:56:43;;;;;;;1.40;1.30;;;17.10;98.00;;;;;;5069933;28;20516;-73
2021/06/25 10:59:20;;;;;;;1.17;1.13;;;17.20;98.00;;;;;;5072390;28;20465;-74
2021/06/25 11:01:51;;;;;;;2.03;1.20;;;17.20;98.00;;;;;;5068984;28;20456;-73
2021/06/25 11:04:39;;;;;;;1.67;1.20;;;17.20;98.00;;;;;;5072792;28;20461;-73
2021/06/25 11:07:10;;;;;;;1.23;1.07;;;17.40;98.00;;;;;;5070082;28;20468;-73
2021/06/25 11:10:02;;;;;;;1.10;1.10;;;17.50;98.00;;;;;;5072144;28;20476;-73
2021/06/25 11:12:33;;;;;;;2.63;1.73;;;17.50;98.00;;;;;;5068096;28;20456;-73
2021/06/25 11:15:32;;;;;;;1.73;1.40;;;17.40;98.00;;;;;;5072191;28;20460;-73
2021/06/25 11:18:03;;;;;;;5.97;1.50;;;17.50;98.00;;;;;;5052208;28;20452;-73
2021/06/25 11:20:32;;;;;;;1.27;1.23;;;17.50;98.00;;;;;;5069303;28;20461;-73
2021/06/25 11:23:05;;;;;;;3.53;1.43;;;17.40;98.00;;;;;;5072338;28;20474;-72
2021/06/25 11:25:57;;;;;;;1.50;1.40;;;17.40;98.00;;;;;;5069921;28;20485;-73
2021/06/25 11:28:36;;;;;;;1.97;1.43;;;17.50;98.00;;;;;;5071782;28;20880;-73
2021/06/25 11:31:07;;;;;;;1.33;1.23;;;17.50;98.00;;;;;;5069227;28;20513;-72
2021/06/25 11:33:38;;;;;;;1.60;1.50;;;17.60;98.00;;;;;;5072125;28;21016;-72
2021/06/25 11:36:21;;;;;;;1.83;1.40;;;17.60;98.00;;;;;;5068761;28;20991;-72
2021/06/25 11:39:10;;;;;;;1.53;1.50;;;17.50;98.00;;;;;;5071770;28;20464;-72
2021/06/25 11:41:59;;;;;;;1.60;1.50;;;17.50;98.00;;;;;;5068205;28;20538;-72
2021/06/25 11:44:29;;;;;;;7.73;1.70;;;17.50;98.00;;;;;;5066233;28;20530;-72
2021/06/25 11:47:01;;;;;;;1.50;1.50;;;17.50;98.00;;;;;;5068127;28;20489;-73
2021/06/25 11:49:36;;;;;;;2.27;1.53;;;17.60;98.00;;;;;;5071349;28;20514;-73
2021/06/25 11:52:10;;;;;;;2.40;1.70;;;17.80;98.00;;;;;;5068321;28;20467;-72
2021/06/25 11:54:40;;;;;;;2.50;1.53;;;17.90;98.00;;;;;;5071141;28;20463;-73
2021/06/25 11:57:16;;;;;;;1.67;1.40;;;18.10;98.00;;;;;;5068546;28;20817;-73
2021/06/25 11:59:56;;;;;;;1.70;1.60;;;18.30;98.00;;;;;;5071241;28;20455;-73
2021/06/25 12:02:23;;;;;;;1.77;1.50;;;18.40;98.00;;;;;;5069189;28;20480;-75
2021/06/25 12:04:53;;;;;;;1.47;1.43;;;18.50;98.00;;;;;;5071834;28;20464;-73
2021/06/25 12:07:21;;;;;;;1.73;1.53;;;18.60;98.00;;;;;;5068671;28;20459;-71
2021/06/25 12:09:50;;;;;;;1.47;1.37;;;18.40;98.00;;;;;;5071244;28;20456;-71
2021/06/25 12:12:26;;;;;;;2.13;1.80;;;18.40;98.00;;;;;;5067687;28;20465;-72
2021/06/25 12:14:56;;;;;;;1.97;1.50;;;18.50;98.00;;;;;;5071524;28;20448;-72
2021/06/25 12:17:25;;;;;;;2.23;1.90;;;18.60;98.00;;;;;;5068680;28;21074;-73
2021/06/25 12:20:04;;;;;;;3.13;1.73;;;18.70;98.00;;;;;;5069526;28;20492;-74
2021/06/25 12:22:31;;;;;;;1.93;1.50;;;18.70;98.00;;;;;;5068744;28;20460;-74
2021/06/25 12:25:01;;;;;;;1.43;1.20;;;18.90;98.00;;;;;;5071353;28;20534;-74
2021/06/25 12:27:37;;;;;;;2.40;1.50;;;19.10;98.00;;;;;;5068418;28;20488;-72
2021/06/25 12:30:09;;;;;;;1.70;1.47;;;19.10;98.00;;;;;;5070556;28;20889;-71
2021/06/25 12:32:36;;;;;;;1.90;1.90;;;19.20;98.00;;;;;;5067434;28;20517;-71
2021/06/25 12:35:05;;;;;;;3.77;2.23;;;19.40;98.00;;;;;;5070837;28;20453;-71
2021/06/25 12:37:50;;;;;;;1.63;1.53;;;19.50;98.00;;;;;;5068404;28;20518;-71
2021/06/25 12:40:43;;;;;;;5.70;1.60;;;19.40;98.00;;;;;;5070428;28;20509;-72
2021/06/25 12:43:12;;;;;;;1.93;1.90;;;19.40;98.00;;;;;;5069452;28;20522;-73
2021/06/25 12:45:42;;;;;;;2.87;1.93;;;19.40;98.00;;;;;;5068397;28;20489;-74
2021/06/25 12:48:12;;;;;;;2.33;2.03;;;19.40;98.00;;;;;;5070111;28;20947;-74
2021/06/25 12:50:42;;;;;;;2.27;1.90;;;19.60;98.00;;;;;;5067649;28;20491;-74
2021/06/25 12:53:14;;;;;;;2.83;2.20;;;19.70;98.00;;;;;;5069969;28;20543;-75
2021/06/25 12:55:44;;;;;;;1.97;1.63;;;19.90;98.00;;;;;;5068101;28;20489;-74
2021/06/25 12:58:13;;;;;;;2.80;2.10;;;20.20;98.00;;;;;;5070037;28;20448;-74
2021/06/25 13:00:40;;;;;;;2.17;1.60;;;20.60;98.00;;;;;;5067817;28;20471;-74
2021/06/25 13:03:09;;;;;;;2.30;1.90;;;20.80;98.00;;;;;;5070180;28;20907;-73
2021/06/25 13:05:37;;;;;;;1.90;1.53;;;21.10;98.00;;;;;;5068651;28;20485;-74
2021/06/25 13:08:17;;;;;;;1.90;1.80;;;21.00;98.00;;;;;;5069944;28;20485;-74
2021/06/25 13:10:44;;;;;;;1.60;1.50;;;21.00;98.00;;;;;;5067375;28;20518;-74
2021/06/25 13:13:19;;;;;;;2.27;1.67;;;20.80;98.00;;;;;;5069796;28;20492;-75
2021/06/25 13:15:51;;;;;;;2.27;1.90;;;20.60;98.00;;;;;;5067806;28;21023;-73